This is the latest recevied weather packets stored in our database for station/object LA9UTA-13. If no packets are shown the sender has not sent any weather packets the latest 10 day(s).
| Time | Temp. | Humidity | Pressure | Rain* | Wind** | Luminosity | Snow |
|---|---|---|---|---|---|---|---|
| 1777712281 | 16.11° C | 40% | 1011.7 hPa | 0 mm | - | 453 W/m² | - |
| 1777711082 | 13.33° C | 50% | 1012 hPa | 0 mm | - | 426 W/m² | - |
| 1777709882 | 13.89° C | 45% | 1011.9 hPa | 0 mm | - | 401 W/m² | - |
| 1777708682 | 13.33° C | 47% | 1013 hPa | 0 mm | - | 418 W/m² | - |
| 1777707487 | 12.22° C | - | - | - | - | - | - |
| 1777707481 | 12.22° C | 52% | 1013.1 hPa | 0 mm | - | 349 W/m² | - |
| 1777706283 | 10.56° C | 60% | 1013.3 hPa | 0 mm | - | 300 W/m² | - |
| 1777705082 | 11.67° C | 57% | 1013.2 hPa | 0 mm | - | 254 W/m² | - |
| 1777703882 | 10° C | 61% | 1013.3 hPa | 0 mm | - | 210 W/m² | - |
| 1777702681 | 8.89° C | 66% | 1013.4 hPa | 0 mm | - | 56 W/m² | - |
| 1777701481 | 8.89° C | 66% | 1013.4 hPa | 0 mm | - | 144 W/m² | - |
| 1777700281 | 8.89° C | 67% | 1013.5 hPa | 0 mm | - | 110 W/m² | - |
| 1777697881 | 7.78° C | 70% | 1014.5 hPa | 0 mm | - | 67 W/m² | - |
| 1777696682 | 7.22° C | 74% | 1014.6 hPa | 0 mm | - | 41 W/m² | - |
| 1777695481 | 7.22° C | 74% | 1014.6 hPa | 0 mm | - | 30 W/m² | - |
| 1777694281 | 6.67° C | 77% | 1014.7 hPa | 0 mm | - | 19 W/m² | - |
| 1777693721 | 5.56° C | 79% | 1014.8 hPa | 0 mm | - | 11 W/m² | - |
| 1777693721 | 6.11° C | 78% | 1015.8 hPa | 0 mm | - | 1 W/m² | - |
| 1777693112 | 6.11° C | 78% | 1015.8 hPa | 0 mm | - | 1 W/m² | - |
| 1777693081 | 5.56° C | 79% | 1014.8 hPa | 0 mm | - | 11 W/m² | - |
| 1777691881 | 5° C | 82% | 1014.8 hPa | 0 mm | - | 4 W/m² | - |
| 1777690681 | 6.11° C | 78% | 1015.8 hPa | 0 mm | - | 1 W/m² | - |
| 1777689481 | 5.56° C | 79% | 1015.9 hPa | 0 mm | - | 0 W/m² | - |
| 1777688282 | 6.11° C | 78% | 1015.8 hPa | 0 mm | - | 0 W/m² | - |
| 1777687082 | 7.22° C | 75% | 1015.7 hPa | 0 mm | - | 0 W/m² | - |
* Rain latest hour (hover to see other rain measurements)
** Current wind speed in m/s (hover to see current wind gust speed)